sensor_id;sensor_type;location;lat;lon;timestamp;pressure;altitude;pressure_sealevel;temperature;humidity
63347;BME280;49472;49.880;8.650;2022-12-18T00:01:02;101343.78;;;17.18;20.83
63347;BME280;49472;49.880;8.650;2022-12-18T00:03:35;101335.78;;;17.21;20.96
63347;BME280;49472;49.880;8.650;2022-12-18T00:06:01;101323.47;;;17.02;20.98
63347;BME280;49472;49.880;8.650;2022-12-18T00:08:26;101328.44;;;16.93;20.86
63347;BME280;49472;49.880;8.650;2022-12-18T00:10:52;101326.50;;;16.52;21.09
63347;BME280;49472;49.880;8.650;2022-12-18T00:13:17;101319.00;;;16.49;21.10
63347;BME280;49472;49.880;8.650;2022-12-18T00:15:42;101322.75;;;17.11;20.75
63347;BME280;49472;49.880;8.650;2022-12-18T00:18:08;101319.09;;;17.46;20.49
63347;BME280;49472;49.880;8.650;2022-12-18T00:20:40;101331.78;;;17.91;19.83
63347;BME280;49472;49.880;8.650;2022-12-18T00:23:06;101333.28;;;17.30;20.38
63347;BME280;49472;49.880;8.650;2022-12-18T00:25:33;101333.00;;;17.33;20.58
63347;BME280;49472;49.880;8.650;2022-12-18T00:28:00;101335.00;;;17.30;20.14
63347;BME280;49472;49.880;8.650;2022-12-18T00:30:25;101342.41;;;17.88;20.10
63347;BME280;49472;49.880;8.650;2022-12-18T00:32:50;101342.47;;;17.44;20.41
63347;BME280;49472;49.880;8.650;2022-12-18T00:35:16;101349.06;;;17.48;20.06
63347;BME280;49472;49.880;8.650;2022-12-18T00:37:44;101361.34;;;16.35;20.86
63347;BME280;49472;49.880;8.650;2022-12-18T00:40:09;101349.56;;;16.99;20.47
63347;BME280;49472;49.880;8.650;2022-12-18T00:42:35;101338.41;;;16.98;20.44
63347;BME280;49472;49.880;8.650;2022-12-18T00:45:19;101334.94;;;17.73;20.09
63347;BME280;49472;49.880;8.650;2022-12-18T00:47:44;101324.22;;;18.30;19.41
63347;BME280;49472;49.880;8.650;2022-12-18T00:50:10;101322.22;;;17.28;20.32
63347;BME280;49472;49.880;8.650;2022-12-18T00:52:55;101327.47;;;18.32;19.70
63347;BME280;49472;49.880;8.650;2022-12-18T00:55:23;101329.78;;;18.25;19.56
63347;BME280;49472;49.880;8.650;2022-12-18T00:57:51;101327.13;;;18.86;19.05
63347;BME280;49472;49.880;8.650;2022-12-18T01:00:16;101330.88;;;18.63;19.00
63347;BME280;49472;49.880;8.650;2022-12-18T01:02:42;101343.41;;;18.58;18.99
63347;BME280;49472;49.880;8.650;2022-12-18T01:05:09;101338.25;;;18.27;19.37
63347;BME280;49472;49.880;8.650;2022-12-18T01:07:34;101339.50;;;18.33;19.57
63347;BME280;49472;49.880;8.650;2022-12-18T01:10:00;101343.13;;;18.61;19.01
63347;BME280;49472;49.880;8.650;2022-12-18T01:12:25;101341.34;;;18.61;19.14
63347;BME280;49472;49.880;8.650;2022-12-18T01:14:51;101338.97;;;17.66;19.80
63347;BME280;49472;49.880;8.650;2022-12-18T01:17:16;101338.59;;;17.18;20.34
63347;BME280;49472;49.880;8.650;2022-12-18T01:19:41;101344.09;;;17.24;20.30
63347;BME280;49472;49.880;8.650;2022-12-18T01:22:07;101338.66;;;17.27;20.54
63347;BME280;49472;49.880;8.650;2022-12-18T01:24:32;101336.69;;;17.20;20.52
63347;BME280;49472;49.880;8.650;2022-12-18T01:26:57;101343.53;;;18.26;19.80
63347;BME280;49472;49.880;8.650;2022-12-18T01:29:23;101353.72;;;17.22;20.32
63347;BME280;49472;49.880;8.650;2022-12-18T01:31:55;101346.22;;;17.51;20.13
63347;BME280;49472;49.880;8.650;2022-12-18T01:34:23;101334.78;;;17.33;20.20
63347;BME280;49472;49.880;8.650;2022-12-18T01:36:49;101346.50;;;17.05;20.35
63347;BME280;49472;49.880;8.650;2022-12-18T01:39:17;101362.22;;;17.13;20.16
63347;BME280;49472;49.880;8.650;2022-12-18T01:41:43;101366.97;;;17.29;20.07
63347;BME280;49472;49.880;8.650;2022-12-18T01:45:20;101369.16;;;17.45;20.09
63347;BME280;49472;49.880;8.650;2022-12-18T01:47:37;101367.72;;;17.52;20.21
63347;BME280;49472;49.880;8.650;2022-12-18T01:50:08;101374.81;;;17.06;20.06
63347;BME280;49472;49.880;8.650;2022-12-18T01:52:36;101364.50;;;16.84;20.47
63347;BME280;49472;49.880;8.650;2022-12-18T01:55:04;101367.09;;;16.95;20.56
63347;BME280;49472;49.880;8.650;2022-12-18T01:57:30;101364.06;;;17.22;20.16
63347;BME280;49472;49.880;8.650;2022-12-18T02:00:03;101361.19;;;17.36;20.24
63347;BME280;49472;49.880;8.650;2022-12-18T02:02:30;101351.38;;;17.84;19.67
63347;BME280;49472;49.880;8.650;2022-12-18T02:04:55;101353.25;;;17.28;20.10
63347;BME280;49472;49.880;8.650;2022-12-18T02:07:37;101351.13;;;18.79;18.89
63347;BME280;49472;49.880;8.650;2022-12-18T02:10:17;101366.84;;;18.56;19.06
63347;BME280;49472;49.880;8.650;2022-12-18T02:13:07;101359.13;;;18.05;19.09
63347;BME280;49472;49.880;8.650;2022-12-18T02:18:41;101357.97;;;17.12;20.21
63347;BME280;49472;49.880;8.650;2022-12-18T02:31:31;101328.34;;;16.95;20.43
63347;BME280;49472;49.880;8.650;2022-12-18T02:34:02;101325.53;;;16.87;20.60
63347;BME280;49472;49.880;8.650;2022-12-18T02:36:31;101318.31;;;17.02;20.70
63347;BME280;49472;49.880;8.650;2022-12-18T02:39:04;101322.81;;;17.00;20.21
63347;BME280;49472;49.880;8.650;2022-12-18T02:41:31;101323.06;;;16.63;20.75
63347;BME280;49472;49.880;8.650;2022-12-18T02:44:01;101319.66;;;17.17;20.66
63347;BME280;49472;49.880;8.650;2022-12-18T02:48:56;101308.50;;;17.17;20.32
63347;BME280;49472;49.880;8.650;2022-12-18T02:51:31;101307.06;;;17.03;20.96
63347;BME280;49472;49.880;8.650;2022-12-18T02:54:10;101316.56;;;17.34;20.61
63347;BME280;49472;49.880;8.650;2022-12-18T02:56:54;101323.84;;;17.29;20.59
63347;BME280;49472;49.880;8.650;2022-12-18T02:59:35;101320.66;;;17.37;20.09
63347;BME280;49472;49.880;8.650;2022-12-18T03:02:30;101327.03;;;17.33;20.41
63347;BME280;49472;49.880;8.650;2022-12-18T03:05:11;101323.91;;;17.18;20.46
63347;BME280;49472;49.880;8.650;2022-12-18T03:07:51;101329.53;;;17.23;20.42
63347;BME280;49472;49.880;8.650;2022-12-18T03:10:23;101341.72;;;17.00;20.79
63347;BME280;49472;49.880;8.650;2022-12-18T03:13:19;101355.44;;;17.01;20.41
63347;BME280;49472;49.880;8.650;2022-12-18T03:15:50;101359.78;;;16.89;20.50
63347;BME280;49472;49.880;8.650;2022-12-18T03:18:28;101356.16;;;16.91;20.35
63347;BME280;49472;49.880;8.650;2022-12-18T03:20:58;101355.59;;;16.88;20.67
63347;BME280;49472;49.880;8.650;2022-12-18T03:23:33;101351.97;;;16.79;20.38
63347;BME280;49472;49.880;8.650;2022-12-18T03:26:05;101352.28;;;16.75;20.38
63347;BME280;49472;49.880;8.650;2022-12-18T03:28:33;101354.28;;;16.93;20.56
63347;BME280;49472;49.880;8.650;2022-12-18T03:31:04;101346.72;;;17.13;20.38
63347;BME280;49472;49.880;8.650;2022-12-18T03:33:36;101348.84;;;17.08;20.25
63347;BME280;49472;49.880;8.650;2022-12-18T03:36:03;101346.66;;;16.69;20.40
63347;BME280;49472;49.880;8.650;2022-12-18T03:38:28;101340.44;;;16.38;20.57
63347;BME280;49472;49.880;8.650;2022-12-18T03:48:51;101325.66;;;16.85;20.34
63347;BME280;49472;49.880;8.650;2022-12-18T03:51:24;101321.03;;;16.89;20.28
63347;BME280;49472;49.880;8.650;2022-12-18T03:54:00;101321.31;;;16.63;20.66
63347;BME280;49472;49.880;8.650;2022-12-18T03:56:31;101309.44;;;16.61;20.44
63347;BME280;49472;49.880;8.650;2022-12-18T03:58:59;101317.66;;;16.77;20.55
63347;BME280;49472;49.880;8.650;2022-12-18T04:01:29;101314.25;;;16.65;20.35
63347;BME280;49472;49.880;8.650;2022-12-18T04:03:58;101314.50;;;16.62;20.42
63347;BME280;49472;49.880;8.650;2022-12-18T04:06:25;101316.50;;;16.81;20.40
63347;BME280;49472;49.880;8.650;2022-12-18T04:08:51;101316.38;;;16.83;20.34
63347;BME280;49472;49.880;8.650;2022-12-18T04:11:17;101318.84;;;16.50;19.80
63347;BME280;49472;49.880;8.650;2022-12-18T04:13:42;101315.09;;;16.55;20.38
63347;BME280;49472;49.880;8.650;2022-12-18T04:16:08;101323.78;;;16.65;20.21
63347;BME280;49472;49.880;8.650;2022-12-18T04:18:35;101324.72;;;16.64;20.07
63347;BME280;49472;49.880;8.650;2022-12-18T04:21:00;101334.47;;;16.38;20.26
63347;BME280;49472;49.880;8.650;2022-12-18T04:23:26;101333.19;;;16.55;20.26
63347;BME280;49472;49.880;8.650;2022-12-18T04:25:51;101328.59;;;16.47;20.28
63347;BME280;49472;49.880;8.650;2022-12-18T04:28:17;101327.56;;;16.49;20.41
63347;BME280;49472;49.880;8.650;2022-12-18T04:30:42;101328.00;;;15.98;20.57
63347;BME280;49472;49.880;8.650;2022-12-18T04:33:11;101316.28;;;16.62;20.47
63347;BME280;49472;49.880;8.650;2022-12-18T04:35:39;101313.91;;;16.70;20.10
63347;BME280;49472;49.880;8.650;2022-12-18T04:38:06;101314.03;;;16.80;20.21
63347;BME280;49472;49.880;8.650;2022-12-18T04:40:32;101312.16;;;16.59;20.17
63347;BME280;49472;49.880;8.650;2022-12-18T04:42:57;101304.31;;;16.38;20.40
63347;BME280;49472;49.880;8.650;2022-12-18T04:45:22;101308.44;;;16.30;20.56
63347;BME280;49472;49.880;8.650;2022-12-18T04:47:47;101306.69;;;16.41;20.42
63347;BME280;49472;49.880;8.650;2022-12-18T04:50:13;101308.41;;;16.41;20.48
63347;BME280;49472;49.880;8.650;2022-12-18T04:52:38;101299.47;;;16.90;19.76
63347;BME280;49472;49.880;8.650;2022-12-18T04:55:04;101304.75;;;16.77;20.03
63347;BME280;49472;49.880;8.650;2022-12-18T04:57:29;101309.72;;;17.12;19.96
63347;BME280;49472;49.880;8.650;2022-12-18T04:59:54;101305.84;;;17.60;19.43
63347;BME280;49472;49.880;8.650;2022-12-18T05:02:19;101311.47;;;16.46;20.08
63347;BME280;49472;49.880;8.650;2022-12-18T05:04:45;101317.22;;;16.27;20.39
63347;BME280;49472;49.880;8.650;2022-12-18T05:07:10;101331.66;;;16.41;20.44
63347;BME280;49472;49.880;8.650;2022-12-18T05:09:35;101333.66;;;16.26;20.64
63347;BME280;49472;49.880;8.650;2022-12-18T05:12:01;101327.88;;;16.56;20.34
63347;BME280;49472;49.880;8.650;2022-12-18T05:14:26;101320.41;;;17.08;20.16
63347;BME280;49472;49.880;8.650;2022-12-18T05:16:52;101334.34;;;16.50;20.22
63347;BME280;49472;49.880;8.650;2022-12-18T05:19:17;101339.25;;;16.54;20.28
63347;BME280;49472;49.880;8.650;2022-12-18T05:21:43;101323.78;;;16.42;20.21
63347;BME280;49472;49.880;8.650;2022-12-18T05:24:08;101329.88;;;16.53;20.17
63347;BME280;49472;49.880;8.650;2022-12-18T05:26:33;101334.09;;;16.65;20.20
63347;BME280;49472;49.880;8.650;2022-12-18T05:28:59;101344.44;;;16.20;20.34
63347;BME280;49472;49.880;8.650;2022-12-18T05:31:24;101345.25;;;16.20;20.43
63347;BME280;49472;49.880;8.650;2022-12-18T05:33:49;101342.91;;;16.40;20.09
63347;BME280;49472;49.880;8.650;2022-12-18T05:36:15;101342.56;;;16.33;20.25
63347;BME280;49472;49.880;8.650;2022-12-18T05:38:41;101338.97;;;17.13;19.63
63347;BME280;49472;49.880;8.650;2022-12-18T05:41:07;101340.47;;;16.16;20.49
63347;BME280;49472;49.880;8.650;2022-12-18T05:43:37;101341.50;;;16.47;20.37
63347;BME280;49472;49.880;8.650;2022-12-18T05:46:08;101332.94;;;16.35;20.25
63347;BME280;49472;49.880;8.650;2022-12-18T05:48:33;101328.59;;;16.02;20.54
63347;BME280;49472;49.880;8.650;2022-12-18T05:51:11;101321.44;;;16.84;20.11
63347;BME280;49472;49.880;8.650;2022-12-18T05:53:37;101319.59;;;17.40;19.72
63347;BME280;49472;49.880;8.650;2022-12-18T05:56:05;101323.44;;;16.36;20.62
63347;BME280;49472;49.880;8.650;2022-12-18T05:58:31;101320.56;;;17.27;19.57
63347;BME280;49472;49.880;8.650;2022-12-18T06:00:56;101314.75;;;16.59;20.10
63347;BME280;49472;49.880;8.650;2022-12-18T06:03:22;101315.56;;;16.60;20.13
63347;BME280;49472;49.880;8.650;2022-12-18T06:05:47;101312.78;;;17.39;19.67
63347;BME280;49472;49.880;8.650;2022-12-18T06:08:15;101308.91;;;18.17;18.98
63347;BME280;49472;49.880;8.650;2022-12-18T06:10:51;101311.09;;;17.91;19.20
63347;BME280;49472;49.880;8.650;2022-12-18T06:13:18;101318.03;;;17.69;18.97
63347;BME280;49472;49.880;8.650;2022-12-18T06:15:43;101326.38;;;16.65;20.15
63347;BME280;49472;49.880;8.650;2022-12-18T06:18:08;101323.41;;;16.58;20.45
63347;BME280;49472;49.880;8.650;2022-12-18T06:20:34;101336.44;;;16.23;20.56
63347;BME280;49472;49.880;8.650;2022-12-18T06:23:01;101328.84;;;17.42;19.89
63347;BME280;49472;49.880;8.650;2022-12-18T06:25:27;101327.66;;;17.46;19.60
63347;BME280;49472;49.880;8.650;2022-12-18T06:27:52;101335.25;;;17.59;19.45
63347;BME280;49472;49.880;8.650;2022-12-18T06:30:18;101341.75;;;16.55;20.53
63347;BME280;49472;49.880;8.650;2022-12-18T06:32:43;101352.78;;;16.23;20.58
63347;BME280;49472;49.880;8.650;2022-12-18T06:35:08;101360.16;;;16.17;21.03
63347;BME280;49472;49.880;8.650;2022-12-18T06:37:34;101363.31;;;15.98;21.11
63347;BME280;49472;49.880;8.650;2022-12-18T06:39:59;101370.56;;;15.93;21.05
63347;BME280;49472;49.880;8.650;2022-12-18T06:42:26;101372.66;;;17.11;20.15
63347;BME280;49472;49.880;8.650;2022-12-18T06:44:51;101379.41;;;17.03;20.21
63347;BME280;49472;49.880;8.650;2022-12-18T06:47:17;101381.06;;;17.68;19.63
63347;BME280;49472;49.880;8.650;2022-12-18T06:49:43;101376.97;;;17.66;19.78
63347;BME280;49472;49.880;8.650;2022-12-18T06:52:08;101374.69;;;17.72;19.79
63347;BME280;49472;49.880;8.650;2022-12-18T06:54:33;101371.25;;;18.04;19.65
63347;BME280;49472;49.880;8.650;2022-12-18T06:56:59;101387.97;;;18.00;19.52
63347;BME280;49472;49.880;8.650;2022-12-18T06:59:24;101383.72;;;18.20;19.23
63347;BME280;49472;49.880;8.650;2022-12-18T07:01:49;101381.81;;;18.22;19.40
63347;BME280;49472;49.880;8.650;2022-12-18T07:04:15;101381.44;;;17.64;19.82
63347;BME280;49472;49.880;8.650;2022-12-18T07:06:40;101369.94;;;17.89;19.48
63347;BME280;49472;49.880;8.650;2022-12-18T07:09:05;101376.06;;;18.18;19.42
63347;BME280;49472;49.880;8.650;2022-12-18T07:11:32;101381.44;;;17.64;19.62
63347;BME280;49472;49.880;8.650;2022-12-18T07:13:58;101392.59;;;17.32;20.13
63347;BME280;49472;49.880;8.650;2022-12-18T07:16:23;101386.44;;;17.44;20.09
63347;BME280;49472;49.880;8.650;2022-12-18T07:18:48;101396.88;;;17.10;20.58
63347;BME280;49472;49.880;8.650;2022-12-18T07:21:16;101393.59;;;17.73;20.00
63347;BME280;49472;49.880;8.650;2022-12-18T07:23:42;101401.75;;;17.36;20.22
63347;BME280;49472;49.880;8.650;2022-12-18T07:26:10;101396.72;;;18.09;19.92
63347;BME280;49472;49.880;8.650;2022-12-18T07:28:37;101410.63;;;16.77;20.34
63347;BME280;49472;49.880;8.650;2022-12-18T07:31:08;101407.44;;;16.74;20.42
63347;BME280;49472;49.880;8.650;2022-12-18T07:33:34;101398.66;;;16.76;20.27
63347;BME280;49472;49.880;8.650;2022-12-18T07:36:00;101401.44;;;17.07;20.06
63347;BME280;49472;49.880;8.650;2022-12-18T07:38:26;101399.38;;;16.67;20.17
63347;BME280;49472;49.880;8.650;2022-12-18T07:40:52;101401.38;;;16.86;20.32
63347;BME280;49472;49.880;8.650;2022-12-18T07:43:17;101395.16;;;17.00;20.35
63347;BME280;49472;49.880;8.650;2022-12-18T07:45:42;101388.78;;;17.15;20.08
63347;BME280;49472;49.880;8.650;2022-12-18T07:48:08;101390.72;;;16.79;20.14
63347;BME280;49472;49.880;8.650;2022-12-18T07:50:33;101403.22;;;17.06;20.11
63347;BME280;49472;49.880;8.650;2022-12-18T07:52:59;101385.56;;;17.55;19.33
63347;BME280;49472;49.880;8.650;2022-12-18T07:55:28;101390.03;;;17.85;19.42
63347;BME280;49472;49.880;8.650;2022-12-18T07:57:54;101391.94;;;17.51;19.55
63347;BME280;49472;49.880;8.650;2022-12-18T08:00:19;101399.97;;;17.36;19.82
63347;BME280;49472;49.880;8.650;2022-12-18T08:02:44;101401.13;;;17.00;20.05
63347;BME280;49472;49.880;8.650;2022-12-18T08:05:10;101410.50;;;17.12;20.03
63347;BME280;49472;49.880;8.650;2022-12-18T08:07:35;101414.97;;;17.54;19.93
63347;BME280;49472;49.880;8.650;2022-12-18T08:10:00;101413.66;;;17.92;19.38
63347;BME280;49472;49.880;8.650;2022-12-18T08:12:25;101421.56;;;17.79;19.09
63347;BME280;49472;49.880;8.650;2022-12-18T08:14:51;101424.00;;;17.16;19.83
63347;BME280;49472;49.880;8.650;2022-12-18T08:17:16;101422.75;;;17.43;19.46
63347;BME280;49472;49.880;8.650;2022-12-18T08:19:41;101421.78;;;17.11;19.96
63347;BME280;49472;49.880;8.650;2022-12-18T08:22:07;101416.34;;;17.26;19.75
63347;BME280;49472;49.880;8.650;2022-12-18T08:24:32;101415.50;;;17.36;19.63
63347;BME280;49472;49.880;8.650;2022-12-18T08:26:57;101419.03;;;17.35;19.83
63347;BME280;49472;49.880;8.650;2022-12-18T08:29:23;101414.47;;;17.60;19.28
63347;BME280;49472;49.880;8.650;2022-12-18T08:31:48;101411.66;;;17.63;19.48
63347;BME280;49472;49.880;8.650;2022-12-18T08:34:13;101407.78;;;17.57;19.63
63347;BME280;49472;49.880;8.650;2022-12-18T08:36:39;101415.63;;;17.67;19.74
63347;BME280;49472;49.880;8.650;2022-12-18T08:39:05;101415.00;;;17.75;19.44
63347;BME280;49472;49.880;8.650;2022-12-18T08:41:30;101418.13;;;17.90;19.54
63347;BME280;49472;49.880;8.650;2022-12-18T08:43:55;101412.94;;;17.57;19.75
63347;BME280;49472;49.880;8.650;2022-12-18T08:46:41;101408.09;;;17.96;19.44
63347;BME280;49472;49.880;8.650;2022-12-18T08:49:08;101397.59;;;18.19;19.36
63347;BME280;49472;49.880;8.650;2022-12-18T08:51:34;101401.75;;;18.31;19.27
63347;BME280;49472;49.880;8.650;2022-12-18T08:54:00;101387.59;;;18.35;19.28
63347;BME280;49472;49.880;8.650;2022-12-18T08:56:25;101383.25;;;18.36;19.55
63347;BME280;49472;49.880;8.650;2022-12-18T08:58:52;101379.75;;;18.87;19.08
63347;BME280;49472;49.880;8.650;2022-12-18T09:01:18;101390.09;;;18.77;19.54
63347;BME280;49472;49.880;8.650;2022-12-18T09:03:43;101392.91;;;19.15;19.42
63347;BME280;49472;49.880;8.650;2022-12-18T09:06:13;101386.66;;;19.56;19.19
63347;BME280;49472;49.880;8.650;2022-12-18T09:08:39;101385.81;;;18.66;20.03
63347;BME280;49472;49.880;8.650;2022-12-18T09:11:11;101375.72;;;19.33;19.90
63347;BME280;49472;49.880;8.650;2022-12-18T09:13:38;101379.50;;;17.01;21.46
63347;BME280;49472;49.880;8.650;2022-12-18T09:16:03;101374.22;;;17.67;21.28
63347;BME280;49472;49.880;8.650;2022-12-18T09:18:29;101388.31;;;17.74;21.32
63347;BME280;49472;49.880;8.650;2022-12-18T09:20:54;101397.44;;;18.41;20.57
63347;BME280;49472;49.880;8.650;2022-12-18T09:23:20;101404.75;;;18.88;20.40
63347;BME280;49472;49.880;8.650;2022-12-18T09:25:45;101410.78;;;19.18;20.28
63347;BME280;49472;49.880;8.650;2022-12-18T09:28:12;101413.78;;;19.03;20.06
63347;BME280;49472;49.880;8.650;2022-12-18T09:30:40;101406.88;;;19.43;20.01
63347;BME280;49472;49.880;8.650;2022-12-18T09:33:06;101415.88;;;19.48;19.93
63347;BME280;49472;49.880;8.650;2022-12-18T09:35:32;101416.16;;;19.45;19.74
63347;BME280;49472;49.880;8.650;2022-12-18T09:38:00;101421.47;;;19.63;20.08
63347;BME280;49472;49.880;8.650;2022-12-18T09:40:36;101411.38;;;19.60;19.79
63347;BME280;49472;49.880;8.650;2022-12-18T09:43:05;101408.63;;;19.23;20.44
63347;BME280;49472;49.880;8.650;2022-12-18T09:45:41;101410.28;;;19.24;20.51
63347;BME280;49472;49.880;8.650;2022-12-18T09:48:31;101399.16;;;20.09;20.10
63347;BME280;49472;49.880;8.650;2022-12-18T09:51:02;101396.66;;;19.41;20.56
63347;BME280;49472;49.880;8.650;2022-12-18T09:53:32;101399.06;;;20.01;19.99
63347;BME280;49472;49.880;8.650;2022-12-18T09:56:01;101402.72;;;21.11;19.50
63347;BME280;49472;49.880;8.650;2022-12-18T10:00:54;101405.69;;;21.16;19.11
63347;BME280;49472;49.880;8.650;2022-12-18T10:03:20;101399.72;;;20.50;19.84
63347;BME280;49472;49.880;8.650;2022-12-18T10:08:43;101404.81;;;19.66;20.02
63347;BME280;49472;49.880;8.650;2022-12-18T10:16:20;101401.78;;;20.09;20.22
63347;BME280;49472;49.880;8.650;2022-12-18T10:27:22;101405.22;;;20.00;20.42
63347;BME280;49472;49.880;8.650;2022-12-18T10:29:48;101405.38;;;19.79;20.48
63347;BME280;49472;49.880;8.650;2022-12-18T10:32:16;101401.63;;;19.04;20.86
63347;BME280;49472;49.880;8.650;2022-12-18T10:34:45;101389.53;;;19.24;20.63
63347;BME280;49472;49.880;8.650;2022-12-18T10:37:16;101376.63;;;21.20;19.50
63347;BME280;49472;49.880;8.650;2022-12-18T10:39:42;101375.59;;;19.83;20.21
63347;BME280;49472;49.880;8.650;2022-12-18T10:42:17;101388.19;;;19.49;20.64
63347;BME280;49472;49.880;8.650;2022-12-18T10:44:42;101395.41;;;19.26;20.51
63347;BME280;49472;49.880;8.650;2022-12-18T10:47:12;101394.69;;;19.04;20.93
63347;BME280;49472;49.880;8.650;2022-12-18T10:49:46;101385.53;;;18.91;21.01
63347;BME280;49472;49.880;8.650;2022-12-18T10:52:24;101396.63;;;19.22;20.45
63347;BME280;49472;49.880;8.650;2022-12-18T10:54:55;101397.19;;;19.84;20.26
63347;BME280;49472;49.880;8.650;2022-12-18T10:57:30;101393.13;;;20.28;19.68
63347;BME280;49472;49.880;8.650;2022-12-18T11:00:21;101390.25;;;18.24;20.96
63347;BME280;49472;49.880;8.650;2022-12-18T11:02:42;101392.44;;;18.80;20.25
63347;BME280;49472;49.880;8.650;2022-12-18T11:05:31;101382.56;;;19.83;20.46
63347;BME280;49472;49.880;8.650;2022-12-18T11:07:58;101389.25;;;19.37;20.16
63347;BME280;49472;49.880;8.650;2022-12-18T11:10:32;101386.66;;;19.37;20.52
63347;BME280;49472;49.880;8.650;2022-12-18T11:13:18;101398.94;;;19.35;20.64
63347;BME280;49472;49.880;8.650;2022-12-18T11:15:46;101391.13;;;18.96;21.31
63347;BME280;49472;49.880;8.650;2022-12-18T11:18:17;101382.84;;;19.50;20.51
63347;BME280;49472;49.880;8.650;2022-12-18T11:20:50;101377.78;;;19.39;21.39
63347;BME280;49472;49.880;8.650;2022-12-18T11:23:18;101382.75;;;20.19;20.15
63347;BME280;49472;49.880;8.650;2022-12-18T11:26:01;101390.38;;;19.73;20.38
63347;BME280;49472;49.880;8.650;2022-12-18T11:34:14;101387.69;;;20.12;20.59
63347;BME280;49472;49.880;8.650;2022-12-18T11:36:47;101378.16;;;20.03;20.16
63347;BME280;49472;49.880;8.650;2022-12-18T11:41:54;101385.16;;;19.92;20.64
63347;BME280;49472;49.880;8.650;2022-12-18T11:44:55;101371.50;;;20.93;19.86
63347;BME280;49472;49.880;8.650;2022-12-18T11:47:56;101366.06;;;21.76;19.09
63347;BME280;49472;49.880;8.650;2022-12-18T11:50:29;101364.38;;;21.31;19.46
63347;BME280;49472;49.880;8.650;2022-12-18T11:52:57;101365.72;;;21.17;19.55
63347;BME280;49472;49.880;8.650;2022-12-18T12:14:03;101367.31;;;21.98;19.27
63347;BME280;49472;49.880;8.650;2022-12-18T12:24:47;101365.25;;;22.27;19.16
63347;BME280;49472;49.880;8.650;2022-12-18T12:30:03;101367.41;;;20.63;20.64
63347;BME280;49472;49.880;8.650;2022-12-18T12:37:47;101340.88;;;22.45;19.55
63347;BME280;49472;49.880;8.650;2022-12-18T12:40:21;101332.22;;;22.95;19.40
63347;BME280;49472;49.880;8.650;2022-12-18T12:42:54;101344.72;;;22.75;19.40
63347;BME280;49472;49.880;8.650;2022-12-18T12:46:00;101338.03;;;21.96;19.59
63347;BME280;49472;49.880;8.650;2022-12-18T12:48:51;101337.19;;;21.43;20.10
63347;BME280;49472;49.880;8.650;2022-12-18T12:51:19;101337.41;;;21.76;19.49
63347;BME280;49472;49.880;8.650;2022-12-18T12:53:48;101347.19;;;20.66;20.29
63347;BME280;49472;49.880;8.650;2022-12-18T12:56:19;101341.66;;;20.97;20.77
63347;BME280;49472;49.880;8.650;2022-12-18T12:58:56;101345.50;;;21.11;20.31
63347;BME280;49472;49.880;8.650;2022-12-18T13:04:39;101332.84;;;20.80;20.57
63347;BME280;49472;49.880;8.650;2022-12-18T13:07:13;101331.97;;;21.07;19.93
63347;BME280;49472;49.880;8.650;2022-12-18T13:10:12;101327.59;;;21.70;19.75
63347;BME280;49472;49.880;8.650;2022-12-18T13:15:31;101327.91;;;20.87;20.11
63347;BME280;49472;49.880;8.650;2022-12-18T13:21:01;101322.38;;;20.72;20.54
63347;BME280;49472;49.880;8.650;2022-12-18T13:23:32;101301.22;;;21.02;20.69
63347;BME280;49472;49.880;8.650;2022-12-18T13:28:52;101281.81;;;21.15;20.47
63347;BME280;49472;49.880;8.650;2022-12-18T13:36:41;101285.81;;;21.45;19.89
63347;BME280;49472;49.880;8.650;2022-12-18T13:41:47;101270.94;;;21.55;20.12
63347;BME280;49472;49.880;8.650;2022-12-18T13:44:24;101268.88;;;22.01;19.76
63347;BME280;49472;49.880;8.650;2022-12-18T13:46:51;101274.94;;;21.76;19.91
63347;BME280;49472;49.880;8.650;2022-12-18T13:51:52;101270.13;;;21.89;19.70
63347;BME280;49472;49.880;8.650;2022-12-18T13:56:58;101262.19;;;21.99;19.99
63347;BME280;49472;49.880;8.650;2022-12-18T13:59:25;101268.44;;;21.80;19.70
63347;BME280;49472;49.880;8.650;2022-12-18T14:01:56;101263.59;;;21.33;20.08
63347;BME280;49472;49.880;8.650;2022-12-18T14:06:53;101260.31;;;21.31;20.77
63347;BME280;49472;49.880;8.650;2022-12-18T14:09:29;101257.47;;;22.02;19.81
63347;BME280;49472;49.880;8.650;2022-12-18T14:11:55;101246.00;;;21.09;20.41
63347;BME280;49472;49.880;8.650;2022-12-18T14:14:44;101248.09;;;20.24;21.12
63347;BME280;49472;49.880;8.650;2022-12-18T14:17:11;101252.13;;;20.99;20.36
63347;BME280;49472;49.880;8.650;2022-12-18T14:19:37;101247.81;;;20.54;20.69
63347;BME280;49472;49.880;8.650;2022-12-18T14:22:24;101240.19;;;20.25;21.02
63347;BME280;49472;49.880;8.650;2022-12-18T14:25:13;101253.94;;;20.08;21.14
63347;BME280;49472;49.880;8.650;2022-12-18T14:28:27;101253.53;;;20.30;21.04
63347;BME280;49472;49.880;8.650;2022-12-18T14:30:41;101251.59;;;20.60;21.05
63347;BME280;49472;49.880;8.650;2022-12-18T14:38:31;101246.59;;;21.20;20.21
63347;BME280;49472;49.880;8.650;2022-12-18T14:40:58;101248.31;;;20.94;20.82
63347;BME280;49472;49.880;8.650;2022-12-18T14:43:26;101251.16;;;21.27;20.51
63347;BME280;49472;49.880;8.650;2022-12-18T14:45:52;101255.91;;;21.05;20.56
63347;BME280;49472;49.880;8.650;2022-12-18T14:50:54;101256.25;;;21.10;20.74
63347;BME280;49472;49.880;8.650;2022-12-18T14:53:32;101252.59;;;21.21;20.63
63347;BME280;49472;49.880;8.650;2022-12-18T14:55:58;101255.69;;;20.80;20.25
63347;BME280;49472;49.880;8.650;2022-12-18T14:58:23;101252.09;;;20.46;20.81
63347;BME280;49472;49.880;8.650;2022-12-18T15:00:48;101244.03;;;20.67;20.85
63347;BME280;49472;49.880;8.650;2022-12-18T15:03:18;101251.47;;;21.23;20.51